Time,TemperatureF,DewpointF,PressureIn,WindDirection,WindDirectionDegrees,WindSpeedMPH,WindSpeedGustMPH,Humidity,HourlyPrecipIn,Conditions,Clouds,dailyrainin,SolarRadiationWatts/m^2,SoftwareType,DateUTC
2013-02-27 00:01:00,59.0,10.0,-100.00,North,358,11.0,19.0,14,0.00,,,0.00,1.000000,,2013-02-27 07:01:00,
2013-02-27 00:11:00,59.0,10.0,-100.00,North,358,11.0,19.0,14,0.00,,,0.00,1.000000,,2013-02-27 07:11:00,
2013-02-27 00:32:00,58.0,9.0,-100.00,North,350,10.0,18.0,14,0.00,,,0.00,1.000000,,2013-02-27 07:32:00,
2013-02-27 00:42:00,58.0,9.0,-100.00,North,350,10.0,18.0,14,0.00,,,0.00,1.000000,,2013-02-27 07:42:00,
2013-02-27 00:52:00,58.0,9.0,-100.00,North,350,10.0,18.0,14,0.00,,,0.00,1.000000,,2013-02-27 07:52:00,
2013-02-27 01:01:00,58.0,9.0,-100.00,North,350,10.0,18.0,14,0.00,,,0.00,1.000000,,2013-02-27 08:01:00,
2013-02-27 01:11:00,58.0,9.0,-100.00,North,350,10.0,18.0,14,0.00,,,0.00,1.000000,,2013-02-27 08:11:00,
2013-02-27 01:42:00,57.0,10.0,-100.00,North,5,9.0,14.0,15,0.00,,,0.00,1.000000,,2013-02-27 08:42:00,
2013-02-27 01:52:00,57.0,10.0,-100.00,North,5,9.0,14.0,15,0.00,,,0.00,1.000000,,2013-02-27 08:52:00,
2013-02-27 02:01:00,57.0,10.0,-100.00,North,5,9.0,14.0,15,0.00,,,0.00,1.000000,,2013-02-27 09:01:00,
2013-02-27 02:11:00,57.0,10.0,-100.00,North,5,9.0,14.0,15,0.00,,,0.00,1.000000,,2013-02-27 09:11:00,
2013-02-27 02:42:00,55.0,11.0,-100.00,North,5,7.0,13.0,17,0.00,,,0.00,1.000000,,2013-02-27 09:42:00,
2013-02-27 02:52:00,55.0,11.0,-100.00,North,5,7.0,13.0,17,0.00,,,0.00,1.000000,,2013-02-27 09:52:00,
2013-02-27 03:01:00,55.0,11.0,-100.00,North,5,7.0,13.0,17,0.00,,,0.00,1.000000,,2013-02-27 10:01:00,
2013-02-27 03:12:00,55.0,11.0,-100.00,North,5,7.0,13.0,17,0.00,,,0.00,1.000000,,2013-02-27 10:12:00,
2013-02-27 03:42:00,54.0,11.0,-100.00,North,1,9.0,14.0,18,0.00,,,0.00,1.000000,,2013-02-27 10:42:00,
2013-02-27 03:52:00,54.0,11.0,-100.00,North,1,9.0,14.0,18,0.00,,,0.00,1.000000,,2013-02-27 10:52:00,
2013-02-27 04:01:00,54.0,11.0,-100.00,North,1,9.0,14.0,18,0.00,,,0.00,1.000000,,2013-02-27 11:01:00,
2013-02-27 04:11:00,54.0,11.0,-100.00,North,1,9.0,14.0,18,0.00,,,0.00,1.000000,,2013-02-27 11:11:00,
2013-02-27 04:32:00,54.0,10.0,-100.00,NNE,26,8.0,16.0,17,0.00,,,0.00,1.000000,,2013-02-27 11:32:00,
2013-02-27 04:42:00,54.0,10.0,-100.00,NNE,26,8.0,16.0,17,0.00,,,0.00,1.000000,,2013-02-27 11:42:00,
2013-02-27 04:52:00,54.0,10.0,-100.00,NNE,26,8.0,16.0,17,0.00,,,0.00,1.000000,,2013-02-27 11:52:00,
2013-02-27 05:02:00,54.0,10.0,-100.00,NNE,26,8.0,16.0,17,0.00,,,0.00,1.000000,,2013-02-27 12:02:00,
2013-02-27 05:12:00,54.0,10.0,-100.00,NNE,26,8.0,16.0,17,0.00,,,0.00,1.000000,,2013-02-27 12:12:00,
2013-02-27 05:42:00,54.0,13.0,-100.00,North,353,11.0,18.0,19,0.00,,,0.00,1.000000,,2013-02-27 12:42:00,
2013-02-27 05:52:00,54.0,13.0,-100.00,North,353,11.0,18.0,19,0.00,,,0.00,1.000000,,2013-02-27 12:52:00,
2013-02-27 06:02:00,54.0,13.0,-100.00,North,353,11.0,18.0,19,0.00,,,0.00,1.000000,,2013-02-27 13:02:00,
2013-02-27 06:11:00,54.0,13.0,-100.00,North,353,11.0,18.0,19,0.00,,,0.00,1.000000,,2013-02-27 13:11:00,
2013-02-27 06:42:00,52.0,11.0,-100.00,NNW,332,7.0,16.0,19,0.00,,,0.00,1.000000,,2013-02-27 13:42:00,
2013-02-27 06:52:00,52.0,11.0,-100.00,NNW,332,7.0,16.0,19,0.00,,,0.00,1.000000,,2013-02-27 13:52:00,
2013-02-27 07:02:00,52.0,11.0,-100.00,NNW,332,7.0,16.0,19,0.00,,,0.00,1.000000,,2013-02-27 14:02:00,
2013-02-27 07:11:00,52.0,11.0,-100.00,NNW,332,7.0,16.0,19,0.00,,,0.00,1.000000,,2013-02-27 14:11:00,
2013-02-27 07:42:00,52.0,11.0,-100.00,North,359,9.0,15.0,19,0.00,,,0.00,2.000000,,2013-02-27 14:42:00,
2013-02-27 07:52:00,52.0,11.0,-100.00,North,359,9.0,15.0,19,0.00,,,0.00,2.000000,,2013-02-27 14:52:00,
2013-02-27 08:02:00,52.0,11.0,-100.00,North,359,9.0,15.0,19,0.00,,,0.00,2.000000,,2013-02-27 15:02:00,
2013-02-27 08:12:00,52.0,11.0,-100.00,North,359,9.0,15.0,19,0.00,,,0.00,2.000000,,2013-02-27 15:12:00,
2013-02-27 08:42:00,54.0,13.0,-100.00,North,1,11.0,18.0,19,0.00,,,0.00,106.000000,,2013-02-27 15:42:00,
2013-02-27 08:52:00,54.0,13.0,-100.00,North,1,11.0,18.0,19,0.00,,,0.00,106.000000,,2013-02-27 15:52:00,
2013-02-27 09:01:00,54.0,13.0,-100.00,North,1,11.0,18.0,19,0.00,,,0.00,106.000000,,2013-02-27 16:01:00,
2013-02-27 09:11:00,54.0,13.0,-100.00,North,1,11.0,18.0,19,0.00,,,0.00,106.000000,,2013-02-27 16:11:00,
2013-02-27 09:42:00,57.0,11.0,-100.00,NNE,15,14.0,21.0,16,0.00,,,0.00,325.000000,,2013-02-27 16:42:00,
2013-02-27 09:52:00,57.0,11.0,-100.00,NNE,15,14.0,21.0,16,0.00,,,0.00,325.000000,,2013-02-27 16:52:00,
2013-02-27 10:01:00,57.0,11.0,-100.00,NNE,15,14.0,21.0,16,0.00,,,0.00,325.000000,,2013-02-27 17:01:00,
2013-02-27 10:11:00,57.0,11.0,-100.00,NNE,15,14.0,21.0,16,0.00,,,0.00,325.000000,,2013-02-27 17:11:00,
2013-02-27 10:42:00,60.0,11.0,-100.00,NNE,13,14.0,24.0,14,0.00,,,0.00,527.000000,,2013-02-27 17:42:00,
2013-02-27 10:52:00,60.0,11.0,-100.00,NNE,13,14.0,24.0,14,0.00,,,0.00,527.000000,,2013-02-27 17:52:00,
2013-02-27 11:01:00,60.0,11.0,-100.00,NNE,13,14.0,24.0,14,0.00,,,0.00,527.000000,,2013-02-27 18:01:00,
2013-02-27 11:11:00,60.0,11.0,-100.00,NNE,13,14.0,24.0,14,0.00,,,0.00,527.000000,,2013-02-27 18:11:00,
2013-02-27 11:42:00,64.0,12.0,-100.00,NNE,14,11.0,23.0,13,0.00,,,0.00,722.000000,,2013-02-27 18:42:00,
2013-02-27 11:52:00,64.0,12.0,-100.00,NNE,14,11.0,23.0,13,0.00,,,0.00,722.000000,,2013-02-27 18:52:00,
2013-02-27 12:01:00,64.0,12.0,-100.00,NNE,14,11.0,23.0,13,0.00,,,0.00,722.000000,,2013-02-27 19:01:00,
2013-02-27 12:11:00,64.0,12.0,-100.00,NNE,14,11.0,23.0,13,0.00,,,0.00,722.000000,,2013-02-27 19:11:00,
2013-02-27 12:42:00,66.0,12.0,-100.00,NNW,343,11.0,18.0,12,0.00,,,0.00,836.000000,,2013-02-27 19:42:00,
2013-02-27 12:52:00,66.0,12.0,-100.00,NNW,343,11.0,18.0,12,0.00,,,0.00,836.000000,,2013-02-27 19:52:00,
2013-02-27 13:01:00,66.0,12.0,-100.00,NNW,343,11.0,18.0,12,0.00,,,0.00,836.000000,,2013-02-27 20:01:00,
2013-02-27 13:11:00,66.0,12.0,-100.00,NNW,343,11.0,18.0,12,0.00,,,0.00,836.000000,,2013-02-27 20:11:00,
2013-02-27 13:42:00,68.0,9.0,-100.00,North,358,12.0,19.0,10,0.00,,,-99.99,854.000000,,2013-02-27 20:42:00,
2013-02-27 13:52:00,68.0,9.0,-100.00,North,358,12.0,19.0,10,0.00,,,-99.99,854.000000,,2013-02-27 20:52:00,
2013-02-27 14:01:00,68.0,9.0,-100.00,North,358,12.0,19.0,10,0.00,,,-99.99,854.000000,,2013-02-27 21:01:00,
2013-02-27 14:11:00,68.0,9.0,-100.00,North,358,12.0,19.0,10,0.00,,,-99.99,854.000000,,2013-02-27 21:11:00,
2013-02-27 14:42:00,69.0,5.0,-100.00,NNW,343,15.0,23.0,8,0.00,,,-99.99,853.000000,,2013-02-27 21:42:00,
2013-02-27 14:52:00,69.0,5.0,-100.00,NNW,343,15.0,23.0,8,0.00,,,-99.99,853.000000,,2013-02-27 21:52:00,
2013-02-27 15:01:00,69.0,5.0,-100.00,NNW,343,15.0,23.0,8,0.00,,,-99.99,853.000000,,2013-02-27 22:01:00,
2013-02-27 15:11:00,69.0,5.0,-100.00,NNW,343,15.0,23.0,8,0.00,,,-99.99,853.000000,,2013-02-27 22:11:00,
2013-02-27 15:42:00,69.0,8.0,-100.00,North,352,11.0,22.0,9,0.00,,,0.00,752.000000,,2013-02-27 22:42:00,
2013-02-27 15:52:00,69.0,8.0,-100.00,North,352,11.0,22.0,9,0.00,,,0.00,752.000000,,2013-02-27 22:52:00,
2013-02-27 16:01:00,69.0,8.0,-100.00,North,352,11.0,22.0,9,0.00,,,0.00,752.000000,,2013-02-27 23:01:00,
2013-02-27 16:11:00,69.0,8.0,-100.00,North,352,11.0,22.0,9,0.00,,,0.00,752.000000,,2013-02-27 23:11:00,
2013-02-27 16:32:00,69.0,5.0,-100.00,North,4,13.0,23.0,8,0.00,,,0.00,564.000000,,2013-02-27 23:32:00,
2013-02-27 16:42:00,69.0,5.0,-100.00,North,4,13.0,23.0,8,0.00,,,0.00,564.000000,,2013-02-27 23:42:00,
2013-02-27 16:53:00,69.0,5.0,-100.00,North,4,13.0,23.0,8,0.00,,,0.00,564.000000,,2013-02-27 23:53:00,
2013-02-27 17:01:00,69.0,5.0,-100.00,North,4,13.0,23.0,8,0.00,,,0.00,564.000000,,2013-02-28 00:01:00,
2013-02-27 17:11:00,69.0,5.0,-100.00,North,4,13.0,23.0,8,0.00,,,0.00,564.000000,,2013-02-28 00:11:00,
2013-02-27 17:42:00,68.0,7.0,-100.00,North,358,12.0,21.0,9,0.00,,,0.00,352.000000,,2013-02-28 00:42:00,
2013-02-27 17:52:00,68.0,7.0,-100.00,North,358,12.0,21.0,9,0.00,,,0.00,352.000000,,2013-02-28 00:52:00,
2013-02-27 18:01:00,68.0,7.0,-100.00,North,358,12.0,21.0,9,0.00,,,0.00,352.000000,,2013-02-28 01:01:00,
2013-02-27 18:11:00,68.0,7.0,-100.00,North,358,12.0,21.0,9,0.00,,,0.00,352.000000,,2013-02-28 01:11:00,
2013-02-27 18:32:00,67.0,6.0,-100.00,North,7,8.0,19.0,9,0.00,,,0.00,156.000000,,2013-02-28 01:32:00,
2013-02-27 18:42:00,67.0,6.0,-100.00,North,7,8.0,19.0,9,0.00,,,0.00,156.000000,,2013-02-28 01:42:00,
2013-02-27 18:52:00,67.0,6.0,-100.00,North,7,8.0,19.0,9,0.00,,,0.00,156.000000,,2013-02-28 01:52:00,
2013-02-27 19:01:00,67.0,6.0,-100.00,North,7,8.0,19.0,9,0.00,,,0.00,156.000000,,2013-02-28 02:01:00,
2013-02-27 19:11:00,67.0,6.0,-100.00,North,7,8.0,19.0,9,0.00,,,0.00,156.000000,,2013-02-28 02:11:00,
2013-02-27 20:01:00,64.0,6.0,-100.00,North,5,5.0,13.0,10,0.00,,,0.00,9.000000,,2013-02-28 03:01:00,
2013-02-27 20:11:00,64.0,6.0,-100.00,North,5,5.0,13.0,10,0.00,,,0.00,9.000000,,2013-02-28 03:11:00,
2013-02-27 20:32:00,62.0,5.0,-100.00,NNW,347,7.0,10.0,10,0.00,,,0.00,1.000000,,2013-02-28 03:32:00,
2013-02-27 20:42:00,62.0,5.0,-100.00,NNW,347,7.0,10.0,10,0.00,,,0.00,1.000000,,2013-02-28 03:42:00,
2013-02-27 20:52:00,62.0,5.0,-100.00,NNW,347,7.0,10.0,10,0.00,,,0.00,1.000000,,2013-02-28 03:52:00,
2013-02-27 21:01:00,62.0,5.0,-100.00,NNW,347,7.0,10.0,10,0.00,,,0.00,1.000000,,2013-02-28 04:01:00,
2013-02-27 21:11:00,62.0,5.0,-100.00,NNW,347,7.0,10.0,10,0.00,,,0.00,1.000000,,2013-02-28 04:11:00,
2013-02-27 21:32:00,61.0,4.0,-100.00,North,350,7.0,8.0,10,0.00,,,0.00,1.000000,,2013-02-28 04:32:00,
2013-02-27 21:42:00,61.0,4.0,-100.00,North,350,7.0,8.0,10,0.00,,,0.00,1.000000,,2013-02-28 04:42:00,
2013-02-27 21:52:00,61.0,4.0,-100.00,North,350,7.0,8.0,10,0.00,,,0.00,1.000000,,2013-02-28 04:52:00,
2013-02-27 22:01:00,61.0,4.0,-100.00,North,350,7.0,8.0,10,0.00,,,0.00,1.000000,,2013-02-28 05:01:00,
2013-02-27 22:11:00,61.0,4.0,-100.00,North,350,7.0,8.0,10,0.00,,,0.00,1.000000,,2013-02-28 05:11:00,
2013-02-27 22:32:00,59.0,5.0,-100.00,NNW,334,6.0,8.0,11,0.00,,,0.00,1.000000,,2013-02-28 05:32:00,
2013-02-27 22:42:00,59.0,5.0,-100.00,NNW,334,6.0,8.0,11,0.00,,,0.00,1.000000,,2013-02-28 05:42:00,
2013-02-27 22:52:00,59.0,5.0,-100.00,NNW,334,6.0,8.0,11,0.00,,,0.00,1.000000,,2013-02-28 05:52:00,
2013-02-27 23:01:00,59.0,5.0,-100.00,NNW,334,6.0,8.0,11,0.00,,,0.00,1.000000,,2013-02-28 06:01:00,
2013-02-27 23:11:00,59.0,5.0,-100.00,NNW,334,6.0,8.0,11,0.00,,,0.00,1.000000,,2013-02-28 06:11:00,
2013-02-27 23:32:00,58.0,6.0,-100.00,NNW,338,9.0,12.0,12,0.00,,,0.00,1.000000,,2013-02-28 06:32:00,
2013-02-27 23:42:00,58.0,6.0,-100.00,NNW,338,9.0,12.0,12,0.00,,,0.00,1.000000,,2013-02-28 06:42:00,
2013-02-27 23:52:00,58.0,6.0,-100.00,NNW,338,9.0,12.0,12,0.00,,,0.00,1.000000,,2013-02-28 06:52:00,